Time;durP1;ratioP1;P1;durP2;ratioP2;P2;SDS_P1;SDS_P2;PMS_P1;PMS_P2;Temp;Humidity;BMP_temperature;BMP_pressure;BME280_temperature;BME280_humidity;BME280_pressure;Samples;Min_cycle;Max_cycle;Signal;HPM_P1;HPM_P2
2023/06/15 00:00:48;;;;;;;;;12.00;10.75;25.40;50.10;;;;;;111487;1241;49396;-62
2023/06/15 00:03:35;;;;;;;;;12.00;11.00;25.40;50.10;;;;;;111279;1240;49527;-63
2023/06/15 00:06:02;;;;;;;;;12.25;11.50;25.40;50.10;;;;;;111662;1237;54926;-63
2023/06/15 00:08:29;;;;;;;;;12.00;10.50;25.40;50.10;;;;;;111421;1243;44683;-63
2023/06/15 00:10:56;;;;;;;;;11.00;10.00;25.50;50.40;;;;;;111385;1238;48589;-64
2023/06/15 00:13:22;;;;;;;;;11.25;10.75;25.40;50.20;;;;;;111389;1243;49272;-62
2023/06/15 00:15:49;;;;;;;;;12.00;11.00;25.40;50.10;;;;;;111201;1243;53994;-64
2023/06/15 00:18:17;;;;;;;;;10.75;10.00;25.40;50.20;;;;;;111479;1237;44148;-63
2023/06/15 00:20:45;;;;;;;;;11.00;10.00;25.40;50.40;;;;;;111483;1237;49498;-64
2023/06/15 00:23:12;;;;;;;;;11.00;10.00;25.40;50.20;;;;;;111458;1242;49471;-62
2023/06/15 00:25:39;;;;;;;;;11.75;10.75;25.40;50.20;;;;;;111088;1242;53640;-63
2023/06/15 00:28:05;;;;;;;;;11.75;11.25;25.40;50.40;;;;;;111532;1237;45129;-64
2023/06/15 00:30:32;;;;;;;;;10.75;10.00;25.40;50.20;;;;;;111462;1239;49389;-62
2023/06/15 00:32:59;;;;;;;;;13.25;11.75;25.30;50.10;;;;;;111318;1237;49837;-63
2023/06/15 00:35:27;;;;;;;;;11.00;11.00;25.40;50.20;;;;;;111140;1243;53610;-63
2023/06/15 00:37:54;;;;;;;;;10.75;9.50;25.30;50.70;;;;;;111320;1240;44972;-63
2023/06/15 00:40:21;;;;;;;;;12.50;11.75;25.30;50.10;;;;;;111441;1242;49719;-63
2023/06/15 00:42:48;;;;;;;;;10.25;10.00;25.40;50.20;;;;;;111504;1238;49551;-63
2023/06/15 00:45:15;;;;;;;;;12.50;10.75;25.30;50.10;;;;;;111666;1243;53897;-62
2023/06/15 00:47:43;;;;;;;;;10.00;9.00;25.30;50.40;;;;;;111469;1238;46985;-62
2023/06/15 00:50:14;;;;;;;;;11.00;10.50;25.40;50.20;;;;;;111507;1237;49041;-64
2023/06/15 00:52:42;;;;;;;;;9.25;8.75;25.30;50.10;;;;;;111513;1239;50056;-63
2023/06/15 00:55:12;;;;;;;;;10.50;8.00;25.30;50.10;;;;;;111150;1239;54339;-64
2023/06/15 00:57:44;;;;;;;;;9.33;8.00;25.40;50.20;;;;;;111163;1238;44876;-65
2023/06/15 01:00:13;;;;;;;;;10.50;9.00;25.40;50.30;;;;;;111427;1242;49377;-65
2023/06/15 01:02:40;;;;;;;;;10.00;10.00;25.40;50.10;;;;;;111438;1240;48869;-64
2023/06/15 01:05:12;;;;;;;;;10.00;10.00;25.40;50.10;;;;;;111002;1240;53992;-65
2023/06/15 01:07:40;;;;;;;;;11.00;11.00;25.30;50.10;;;;;;111336;1243;45030;-64
2023/06/15 01:10:12;;;;;;;;;10.75;10.00;25.40;50.10;;;;;;111600;1239;49623;-64
2023/06/15 01:12:40;;;;;;;;;11.25;10.00;25.30;50.00;;;;;;111198;1237;49691;-64
2023/06/15 01:15:08;;;;;;;;;10.75;10.00;25.30;50.00;;;;;;111259;1243;54575;-64
2023/06/15 01:17:37;;;;;;;;;12.75;12.25;25.30;50.00;;;;;;111355;1243;44234;-64
2023/06/15 01:20:07;;;;;;;;;9.67;9.00;25.40;50.10;;;;;;111269;1242;49057;-64
2023/06/15 01:22:58;;;;;;;;;11.25;10.25;25.30;50.00;;;;;;111309;1243;49618;-66
2023/06/15 01:25:33;;;;;;;;;10.50;10.00;25.30;50.00;;;;;;111702;1243;54620;-65
2023/06/15 01:28:03;;;;;;;;;11.75;10.00;25.30;50.00;;;;;;111480;1242;44333;-64
2023/06/15 01:30:33;;;;;;;;;11.00;9.75;25.40;50.30;;;;;;111456;1241;48967;-64
2023/06/15 01:33:00;;;;;;;;;13.25;10.00;25.40;50.00;;;;;;111395;1239;49361;-66
2023/06/15 01:35:27;;;;;;;;;10.75;9.00;25.40;50.00;;;;;;111660;1238;54218;-65
2023/06/15 01:37:54;;;;;;;;;10.25;10.00;25.30;50.00;;;;;;111379;1238;45641;-65
2023/06/15 01:40:21;;;;;;;;;11.00;9.75;25.30;50.40;;;;;;111301;1243;49368;-66
2023/06/15 01:42:50;;;;;;;;;11.75;10.00;25.30;50.10;;;;;;111540;1243;49609;-65
2023/06/15 01:45:19;;;;;;;;;9.00;8.00;25.30;50.20;;;;;;111768;1238;54071;-66
2023/06/15 01:47:48;;;;;;;;;11.00;10.50;25.30;50.00;;;;;;111375;1244;45940;-65
2023/06/15 01:50:16;;;;;;;;;10.75;8.75;25.30;50.00;;;;;;111653;1243;50409;-63
2023/06/15 01:52:44;;;;;;;;;11.00;10.25;25.30;49.90;;;;;;111356;1243;49657;-67
2023/06/15 01:55:12;;;;;;;;;11.00;9.00;25.30;49.90;;;;;;111802;1240;54211;-63
2023/06/15 01:57:40;;;;;;;;;11.00;10.00;25.30;50.00;;;;;;111352;1238;44792;-65
2023/06/15 02:00:10;;;;;;;;;10.00;9.00;25.30;49.90;;;;;;111444;1237;49013;-64
2023/06/15 02:02:37;;;;;;;;;11.00;9.50;25.30;49.90;;;;;;111249;1240;49468;-64
2023/06/15 02:05:08;;;;;;;;;11.25;10.00;25.30;50.00;;;;;;111136;1243;53697;-64
2023/06/15 02:07:35;;;;;;;;;10.00;9.00;25.30;50.10;;;;;;111369;1243;44879;-65
2023/06/15 02:10:03;;;;;;;;;13.00;12.00;25.30;50.00;;;;;;111254;1239;49965;-64
2023/06/15 02:12:30;;;;;;;;;10.33;9.00;25.30;50.20;;;;;;111497;1243;48802;-65
2023/06/15 02:14:57;;;;;;;;;11.25;11.00;25.30;50.00;;;;;;111633;1238;54684;-67
2023/06/15 02:17:24;;;;;;;;;11.67;10.00;25.20;50.00;;;;;;111267;1240;44295;-66
2023/06/15 02:19:51;;;;;;;;;12.00;10.00;25.30;50.10;;;;;;111553;1243;49700;-67
2023/06/15 02:22:18;;;;;;;;;10.00;9.00;25.20;50.00;;;;;;111512;1243;49030;-66
2023/06/15 02:24:45;;;;;;;;;12.00;10.00;25.20;50.00;;;;;;111723;1240;53262;-65
2023/06/15 02:27:12;;;;;;;;;10.00;9.00;25.20;50.00;;;;;;111485;1242;45009;-66
2023/06/15 02:29:40;;;;;;;;;10.00;9.00;25.20;50.00;;;;;;111598;1237;49861;-64
2023/06/15 02:32:08;;;;;;;;;11.00;10.00;25.20;50.00;;;;;;111534;1240;49666;-65
2023/06/15 02:34:36;;;;;;;;;10.50;10.00;25.20;50.00;;;;;;111718;1240;53149;-66
2023/06/15 02:37:03;;;;;;;;;9.75;9.25;25.20;50.50;;;;;;111591;1242;45403;-65
2023/06/15 02:39:30;;;;;;;;;11.00;9.25;25.20;50.00;;;;;;111510;1242;49116;-65
2023/06/15 02:41:57;;;;;;;;;12.75;9.75;25.20;50.00;;;;;;111457;1242;49043;-65
2023/06/15 02:44:24;;;;;;;;;9.00;8.00;25.20;50.00;;;;;;111758;1238;53211;-65
2023/06/15 02:46:51;;;;;;;;;9.00;8.00;25.20;50.00;;;;;;111440;1239;45330;-65
2023/06/15 02:49:18;;;;;;;;;11.00;10.00;25.20;50.00;;;;;;111407;1242;48875;-64
2023/06/15 02:51:46;;;;;;;;;10.75;10.00;25.20;50.00;;;;;;111330;1243;49154;-65
2023/06/15 02:54:12;;;;;;;;;10.25;9.00;25.20;50.00;;;;;;111273;1242;54762;-65
2023/06/15 02:56:41;;;;;;;;;9.25;8.50;25.20;50.00;;;;;;111302;1238;44299;-65
2023/06/15 02:59:09;;;;;;;;;10.00;9.33;25.20;49.60;;;;;;111341;1241;49579;-67
2023/06/15 03:01:39;;;;;;;;;11.25;10.75;25.20;50.20;;;;;;111384;1240;50200;-65
2023/06/15 03:04:09;;;;;;;;;8.75;8.00;25.20;50.00;;;;;;111529;1239;53856;-66
2023/06/15 03:06:37;;;;;;;;;10.00;9.75;25.20;50.00;;;;;;111608;1243;44205;-66
2023/06/15 03:09:08;;;;;;;;;11.00;10.00;25.20;50.00;;;;;;111380;1241;50605;-65
2023/06/15 03:11:34;;;;;;;;;9.50;9.00;25.20;50.00;;;;;;111465;1242;50609;-66
2023/06/15 03:14:02;;;;;;;;;10.75;10.00;25.20;50.00;;;;;;111480;1243;53512;-66
2023/06/15 03:16:32;;;;;;;;;10.50;9.00;25.20;50.00;;;;;;111823;1237;44685;-66
2023/06/15 03:19:00;;;;;;;;;10.00;9.00;25.20;50.00;;;;;;111646;1242;49735;-66
2023/06/15 03:21:29;;;;;;;;;12.00;11.00;25.20;50.00;;;;;;111493;1243;49802;-65
2023/06/15 03:23:56;;;;;;;;;9.00;8.75;25.20;50.00;;;;;;111574;1242;54565;-64
2023/06/15 03:26:26;;;;;;;;;11.25;10.00;25.20;49.90;;;;;;111286;1243;44792;-65
2023/06/15 03:28:57;;;;;;;;;10.50;9.75;25.20;50.00;;;;;;111607;1237;49803;-65
2023/06/15 03:31:28;;;;;;;;;9.25;8.25;25.20;49.90;;;;;;111388;1238;50370;-66
2023/06/15 03:33:56;;;;;;;;;9.00;8.00;25.20;49.90;;;;;;111385;1238;54172;-67
2023/06/15 03:36:25;;;;;;;;;9.75;9.00;25.20;50.00;;;;;;111719;1244;44668;-65
2023/06/15 03:38:52;;;;;;;;;9.75;9.00;25.20;50.20;;;;;;111386;1238;48661;-65
2023/06/15 03:41:19;;;;;;;;;9.00;8.00;25.20;49.90;;;;;;111264;1238;50190;-65
2023/06/15 03:43:46;;;;;;;;;9.50;8.75;25.20;49.90;;;;;;111375;1243;53764;-65
2023/06/15 03:46:13;;;;;;;;;8.50;8.00;25.20;49.90;;;;;;111130;1239;45384;-64
2023/06/15 03:48:40;;;;;;;;;8.75;8.00;25.20;50.00;;;;;;111248;1239;49417;-64
2023/06/15 03:51:07;;;;;;;;;8.25;8.00;25.20;50.00;;;;;;111343;1243;49185;-63
2023/06/15 03:53:33;;;;;;;;;11.00;10.00;25.20;50.50;;;;;;111333;1238;54161;-63
2023/06/15 03:56:00;;;;;;;;;8.50;8.00;25.20;50.00;;;;;;111201;1243;44844;-64
2023/06/15 03:58:28;;;;;;;;;8.50;8.25;25.20;50.00;;;;;;111331;1242;49061;-64
2023/06/15 04:00:56;;;;;;;;;10.33;10.00;25.20;50.00;;;;;;111308;1243;48759;-63
2023/06/15 04:03:23;;;;;;;;;9.75;9.00;25.20;50.00;;;;;;111259;1239;54669;-63
2023/06/15 04:05:50;;;;;;;;;9.00;8.50;25.20;50.00;;;;;;111476;1240;44975;-64
2023/06/15 04:08:17;;;;;;;;;14.00;10.00;25.20;50.00;;;;;;111260;1240;48964;-62
2023/06/15 04:10:44;;;;;;;;;8.00;8.00;25.20;50.00;;;;;;111370;1239;49456;-64
2023/06/15 04:13:11;;;;;;;;;8.50;7.75;25.20;49.90;;;;;;111389;1242;54791;-65
2023/06/15 04:15:38;;;;;;;;;10.00;9.00;25.20;50.00;;;;;;111199;1240;44797;-62
2023/06/15 04:18:05;;;;;;;;;10.50;9.75;25.20;50.00;;;;;;111380;1243;49860;-65
2023/06/15 04:20:32;;;;;;;;;11.00;10.00;25.20;50.10;;;;;;111448;1238;49680;-65
2023/06/15 04:22:59;;;;;;;;;10.75;10.00;25.20;49.80;;;;;;111524;1242;53606;-63
2023/06/15 04:25:27;;;;;;;;;12.00;10.50;25.20;49.60;;;;;;111808;1242;44315;-66
2023/06/15 04:27:55;;;;;;;;;11.75;11.00;25.10;49.80;;;;;;111406;1243;48810;-63
2023/06/15 04:30:24;;;;;;;;;17.50;16.75;25.20;49.10;;;;;;111521;1238;49784;-64
2023/06/15 04:32:59;;;;;;;;;17.50;16.25;25.20;49.00;;;;;;111353;1242;54928;-65
2023/06/15 04:35:31;;;;;;;;;12.00;11.00;25.20;48.90;;;;;;111833;1238;44583;-67
2023/06/15 04:37:58;;;;;;;;;14.75;13.75;25.10;49.00;;;;;;111503;1237;48750;-64
2023/06/15 04:40:25;;;;;;;;;16.00;15.00;25.20;49.20;;;;;;111345;1243;49982;-66
2023/06/15 04:42:53;;;;;;;;;15.75;14.00;25.20;49.00;;;;;;111424;1239;53746;-66
2023/06/15 04:45:20;;;;;;;;;16.00;15.00;25.10;49.00;;;;;;111810;1237;44323;-70
2023/06/15 04:47:47;;;;;;;;;17.00;15.00;25.10;48.50;;;;;;111501;1243;49353;-70
2023/06/15 04:50:14;;;;;;;;;14.00;13.75;25.20;49.20;;;;;;111597;1238;49927;-64
2023/06/15 04:52:41;;;;;;;;;16.75;16.00;25.20;49.10;;;;;;111533;1238;53966;-63
2023/06/15 04:55:10;;;;;;;;;14.67;14.00;25.20;49.20;;;;;;111377;1244;44980;-62
2023/06/15 04:57:37;;;;;;;;;15.00;14.00;25.10;49.30;;;;;;111224;1244;48781;-61
2023/06/15 05:00:07;;;;;;;;;23.00;19.67;25.10;49.10;;;;;;111165;1242;50438;-64
2023/06/15 05:02:34;;;;;;;;;20.00;18.00;25.10;49.20;;;;;;111275;1244;53409;-65
2023/06/15 05:05:01;;;;;;;;;19.50;17.50;25.10;48.80;;;;;;111149;1242;44952;-68
2023/06/15 05:07:28;;;;;;;;;26.00;22.00;25.10;48.90;;;;;;111576;1243;50410;-68
2023/06/15 05:09:55;;;;;;;;;20.25;19.50;25.10;48.70;;;;;;111553;1237;49431;-67
2023/06/15 05:12:22;;;;;;;;;19.00;17.00;25.10;49.40;;;;;;111523;1242;54007;-67
2023/06/15 05:14:49;;;;;;;;;17.50;16.75;25.10;50.80;;;;;;111772;1242;44154;-67
2023/06/15 05:17:16;;;;;;;;;45.25;35.50;25.20;52.00;;;;;;111507;1238;50130;-71
2023/06/15 05:19:43;;;;;;;;;51.33;36.67;25.20;51.80;;;;;;111388;1243;49529;-70
2023/06/15 05:22:10;;;;;;;;;43.25;33.00;25.20;51.50;;;;;;111431;1238;54020;-70
2023/06/15 05:24:37;;;;;;;;;36.75;29.00;25.20;51.10;;;;;;111794;1243;44403;-65
2023/06/15 05:27:05;;;;;;;;;36.50;29.75;25.20;51.00;;;;;;111299;1238;49328;-64
2023/06/15 05:29:32;;;;;;;;;44.67;32.33;25.20;50.90;;;;;;111321;1243;48998;-64
2023/06/15 05:32:00;;;;;;;;;63.00;42.00;25.20;50.90;;;;;;111375;1238;54381;-64
2023/06/15 05:34:26;;;;;;;;;50.50;36.75;25.10;50.80;;;;;;111330;1237;45195;-65
2023/06/15 05:36:54;;;;;;;;;48.50;35.75;25.10;51.00;;;;;;111363;1243;49322;-66
2023/06/15 05:39:21;;;;;;;;;42.50;31.00;25.00;50.90;;;;;;111240;1240;50000;-66
2023/06/15 05:41:48;;;;;;;;;42.50;31.75;25.00;50.70;;;;;;111412;1237;54101;-65
2023/06/15 05:44:15;;;;;;;;;39.00;31.25;25.00;50.80;;;;;;111345;1237;44877;-65
2023/06/15 05:46:42;;;;;;;;;38.00;29.50;24.90;50.70;;;;;;111525;1243;49574;-67
2023/06/15 05:49:09;;;;;;;;;38.00;30.67;24.90;50.70;;;;;;111381;1237;49357;-64
2023/06/15 05:51:36;;;;;;;;;33.25;26.00;24.90;50.70;;;;;;111404;1240;54339;-65
2023/06/15 05:54:03;;;;;;;;;35.00;27.00;24.90;50.50;;;;;;111313;1244;44278;-66
2023/06/15 05:56:30;;;;;;;;;26.33;23.67;24.90;50.60;;;;;;111379;1243;49539;-66
2023/06/15 05:58:57;;;;;;;;;26.25;22.00;24.90;50.70;;;;;;111345;1242;49023;-66
2023/06/15 06:01:24;;;;;;;;;24.75;22.50;24.90;50.90;;;;;;111440;1237;54067;-66
2023/06/15 06:03:51;;;;;;;;;21.00;17.67;24.80;50.60;;;;;;111256;1239;45027;-66
2023/06/15 06:06:18;;;;;;;;;27.00;21.75;24.90;50.70;;;;;;111426;1242;49143;-66
2023/06/15 06:08:46;;;;;;;;;20.00;18.33;24.80;50.60;;;;;;111346;1243;49465;-66
2023/06/15 06:11:14;;;;;;;;;25.50;21.25;24.80;50.60;;;;;;111490;1238;54225;-66
2023/06/15 06:13:42;;;;;;;;;23.50;18.75;24.80;50.40;;;;;;111360;1238;44210;-65
2023/06/15 06:16:08;;;;;;;;;19.00;17.25;24.80;50.30;;;;;;111338;1239;50155;-66
2023/06/15 06:18:35;;;;;;;;;19.75;18.25;24.80;50.40;;;;;;111293;1238;50827;-66
2023/06/15 06:21:02;;;;;;;;;19.50;17.00;24.80;50.10;;;;;;111432;1242;53540;-66
2023/06/15 06:23:31;;;;;;;;;20.75;18.00;24.80;50.20;;;;;;111309;1242;44869;-64
2023/06/15 06:25:59;;;;;;;;;17.00;15.00;24.80;49.90;;;;;;111503;1243;48903;-66
2023/06/15 06:28:26;;;;;;;;;16.00;15.33;24.80;50.10;;;;;;111524;1238;49237;-66
2023/06/15 06:30:53;;;;;;;;;17.33;16.00;24.80;50.00;;;;;;111352;1243;53494;-66
2023/06/15 06:33:20;;;;;;;;;19.00;17.50;24.90;50.10;;;;;;111393;1237;44860;-65
2023/06/15 06:35:47;;;;;;;;;20.00;17.00;24.90;49.80;;;;;;111408;1238;49751;-66
2023/06/15 06:38:14;;;;;;;;;17.75;16.25;24.80;49.60;;;;;;111359;1238;50028;-66
2023/06/15 06:40:41;;;;;;;;;16.00;13.25;24.90;49.70;;;;;;111322;1240;53848;-66
2023/06/15 06:43:08;;;;;;;;;15.50;15.00;24.80;49.30;;;;;;111487;1242;44605;-65
2023/06/15 06:45:35;;;;;;;;;17.50;15.00;24.80;49.20;;;;;;111360;1242;49317;-66
2023/06/15 06:48:02;;;;;;;;;17.25;15.25;24.80;49.30;;;;;;111475;1239;49107;-65
2023/06/15 06:50:29;;;;;;;;;14.33;14.00;24.90;49.40;;;;;;111372;1242;54190;-65
2023/06/15 06:52:57;;;;;;;;;16.50;15.00;24.90;49.30;;;;;;111337;1240;44933;-65
2023/06/15 06:55:24;;;;;;;;;18.75;14.00;24.90;49.20;;;;;;111438;1243;49362;-65
2023/06/15 06:57:51;;;;;;;;;14.25;13.25;24.90;49.40;;;;;;111329;1237;48975;-64
2023/06/15 07:00:18;;;;;;;;;12.33;12.00;24.80;49.20;;;;;;111393;1240;54163;-66
2023/06/15 07:02:45;;;;;;;;;16.00;13.00;24.90;48.90;;;;;;111419;1243;45124;-65
2023/06/15 07:05:12;;;;;;;;;17.67;15.67;24.80;48.80;;;;;;111427;1237;49010;-66
2023/06/15 07:07:39;;;;;;;;;14.00;13.00;24.90;49.10;;;;;;111322;1242;50094;-66
2023/06/15 07:10:06;;;;;;;;;13.00;13.00;24.90;48.70;;;;;;111412;1242;54444;-66
2023/06/15 07:12:33;;;;;;;;;13.25;12.50;24.90;48.70;;;;;;111264;1243;44104;-67
2023/06/15 07:15:01;;;;;;;;;14.00;13.25;24.90;48.80;;;;;;111756;1243;50131;-65
2023/06/15 07:17:28;;;;;;;;;14.75;12.25;24.90;48.60;;;;;;111273;1243;49376;-66
2023/06/15 07:19:55;;;;;;;;;15.00;14.00;24.90;48.80;;;;;;111382;1242;54087;-66
2023/06/15 07:22:23;;;;;;;;;14.25;13.25;24.90;48.60;;;;;;111381;1239;44875;-66
2023/06/15 07:24:51;;;;;;;;;15.25;14.00;24.90;48.80;;;;;;111376;1238;49462;-66
2023/06/15 07:27:20;;;;;;;;;14.00;12.33;24.90;48.80;;;;;;111292;1241;50199;-65
2023/06/15 07:29:47;;;;;;;;;353.75;239.75;24.90;48.60;;;;;;111494;1243;54436;-65
2023/06/15 07:32:15;;;;;;;;;20.00;17.25;24.90;49.30;;;;;;111291;1245;44970;-63
2023/06/15 07:34:42;;;;;;;;;14.25;13.75;;;;;;;;111576;1243;50636;-67
2023/06/15 07:37:09;;;;;;;;;14.00;12.00;24.90;49.10;;;;;;111006;1238;746536;-66
2023/06/15 07:39:36;;;;;;;;;16.00;13.00;24.90;49.70;;;;;;111445;1242;53237;-67
2023/06/15 07:42:04;;;;;;;;;15.25;13.00;25.00;49.70;;;;;;111408;1237;44355;-66
2023/06/15 07:44:31;;;;;;;;;15.75;15.50;25.10;49.70;;;;;;111467;1240;48897;-66
2023/06/15 07:46:58;;;;;;;;;14.50;14.25;25.10;49.80;;;;;;111396;1237;49807;-69
2023/06/15 07:49:25;;;;;;;;;16.00;13.00;25.10;50.00;;;;;;111351;1237;54427;-63
2023/06/15 07:51:52;;;;;;;;;14.00;11.50;25.10;49.80;;;;;;111370;1243;44535;-65
2023/06/15 07:54:19;;;;;;;;;17.50;14.00;25.20;50.10;;;;;;111473;1242;49104;-63
2023/06/15 07:56:46;;;;;;;;;14.00;13.00;25.20;50.00;;;;;;111385;1240;49956;-63
2023/06/15 07:59:14;;;;;;;;;18.50;15.75;25.20;50.10;;;;;;111385;1238;53528;-62
2023/06/15 08:01:41;;;;;;;;;15.00;13.50;25.20;50.50;;;;;;111432;1238;45751;-64
2023/06/15 08:04:09;;;;;;;;;15.00;13.25;25.20;50.30;;;;;;111372;1238;49362;-66
2023/06/15 08:06:36;;;;;;;;;15.00;11.50;25.20;50.50;;;;;;111384;1238;50033;-65
2023/06/15 08:09:04;;;;;;;;;13.75;12.50;25.20;50.60;;;;;;111347;1237;54575;-65
2023/06/15 08:11:31;;;;;;;;;14.00;12.00;25.20;50.40;;;;;;111375;1242;44126;-67
2023/06/15 08:13:59;;;;;;;;;15.00;13.25;25.20;50.40;;;;;;111350;1243;49950;-64
2023/06/15 08:16:26;;;;;;;;;15.00;13.00;25.20;50.50;;;;;;111676;1242;50735;-63
2023/06/15 08:18:53;;;;;;;;;15.50;14.00;25.30;50.50;;;;;;111407;1242;53481;-66
2023/06/15 08:21:20;;;;;;;;;12.75;11.75;25.30;50.50;;;;;;111349;1242;44733;-64
2023/06/15 08:23:47;;;;;;;;;14.00;12.67;25.40;50.60;;;;;;111387;1242;50334;-66
2023/06/15 08:26:14;;;;;;;;;12.75;12.25;25.40;50.50;;;;;;111535;1237;49100;-65
2023/06/15 08:28:41;;;;;;;;;13.75;12.00;25.40;50.70;;;;;;111324;1243;53957;-68
2023/06/15 08:31:07;;;;;;;;;14.33;13.67;25.40;50.40;;;;;;111271;1244;44281;-67
2023/06/15 08:33:35;;;;;;;;;13.25;12.50;25.40;50.40;;;;;;111479;1242;49851;-66
2023/06/15 08:36:03;;;;;;;;;12.67;11.00;25.40;50.40;;;;;;111478;1242;49534;-67
2023/06/15 08:38:30;;;;;;;;;16.00;13.25;25.40;50.40;;;;;;111257;1244;53993;-67
2023/06/15 08:40:57;;;;;;;;;14.25;12.00;25.40;50.60;;;;;;111379;1239;44953;-66
2023/06/15 08:43:25;;;;;;;;;13.50;12.75;25.50;50.40;;;;;;111400;1238;49870;-65
2023/06/15 08:45:55;;;;;;;;;14.33;13.67;25.50;50.40;;;;;;111353;1243;50468;-66
2023/06/15 08:48:22;;;;;;;;;15.00;13.00;25.50;50.20;;;;;;111397;1237;54012;-64
2023/06/15 08:50:49;;;;;;;;;16.00;14.50;25.50;50.20;;;;;;111253;1240;44070;-66
2023/06/15 08:53:17;;;;;;;;;14.75;13.50;25.50;50.10;;;;;;111307;1243;49932;-67
2023/06/15 08:55:46;;;;;;;;;14.00;13.25;25.50;50.10;;;;;;111507;1243;49204;-65
2023/06/15 08:58:13;;;;;;;;;14.50;11.75;25.60;50.30;;;;;;111402;1243;53437;-66
2023/06/15 09:00:40;;;;;;;;;12.00;10.00;25.60;50.10;;;;;;111422;1243;45123;-65
2023/06/15 09:03:09;;;;;;;;;14.33;12.00;25.60;50.30;;;;;;111416;1238;50488;-67
2023/06/15 09:05:38;;;;;;;;;14.00;13.00;25.70;50.70;;;;;;111482;1237;48919;-65
2023/06/15 09:08:05;;;;;;;;;13.00;11.33;25.70;50.40;;;;;;111415;1242;53938;-65
2023/06/15 09:10:36;;;;;;;;;14.25;12.00;25.70;50.20;;;;;;111473;1242;44176;-66
2023/06/15 09:13:04;;;;;;;;;15.00;13.67;25.70;50.30;;;;;;111475;1238;49140;-66
2023/06/15 09:15:30;;;;;;;;;13.50;11.50;25.70;50.20;;;;;;111308;1243;49130;-68
2023/06/15 09:18:00;;;;;;;;;13.00;12.00;25.70;50.20;;;;;;111309;1240;54221;-67
2023/06/15 09:20:38;;;;;;;;;13.50;12.00;25.80;50.20;;;;;;111482;1243;45518;-66
2023/06/15 09:23:10;;;;;;;;;16.00;13.75;25.80;50.20;;;;;;111319;1243;49448;-67
2023/06/15 09:25:41;;;;;;;;;13.25;12.00;25.80;50.20;;;;;;111475;1242;49179;-66
2023/06/15 09:28:08;;;;;;;;;12.00;12.00;25.80;50.20;;;;;;111399;1243;54002;-66
2023/06/15 09:30:39;;;;;;;;;13.25;12.00;25.90;50.10;;;;;;111240;1245;44505;-67
2023/06/15 09:33:18;;;;;;;;;16.75;13.50;25.90;50.10;;;;;;111420;1243;49595;-66
2023/06/15 09:36:01;;;;;;;;;14.00;12.25;25.90;50.10;;;;;;111433;1240;49825;-67
2023/06/15 09:38:30;;;;;;;;;14.25;12.75;25.90;50.00;;;;;;111272;1239;54086;-64
2023/06/15 09:41:04;;;;;;;;;14.00;13.00;25.90;49.90;;;;;;111363;1239;44491;-66
2023/06/15 09:43:34;;;;;;;;;13.25;12.00;26.00;50.10;;;;;;111276;1240;48876;-65
2023/06/15 09:46:02;;;;;;;;;14.75;12.00;25.90;50.10;;;;;;111534;1242;49088;-66
2023/06/15 09:48:32;;;;;;;;;12.33;11.67;25.90;49.70;;;;;;111369;1243;53803;-69
2023/06/15 09:51:02;;;;;;;;;17.00;13.00;26.00;50.10;;;;;;111377;1240;44360;-65
2023/06/15 09:53:33;;;;;;;;;13.00;11.50;26.00;50.30;;;;;;111380;1242;49188;-66
2023/06/15 09:56:00;;;;;;;;;12.50;11.50;26.00;50.10;;;;;;111315;1243;49517;-64
2023/06/15 09:58:27;;;;;;;;;12.25;11.25;26.00;50.10;;;;;;111416;1244;53754;-63
2023/06/15 10:00:57;;;;;;;;;14.00;13.00;26.00;50.10;;;;;;111351;1238;44633;-62
2023/06/15 10:03:25;;;;;;;;;12.25;12.25;26.00;50.00;;;;;;111433;1243;49576;-65
2023/06/15 10:05:54;;;;;;;;;13.25;12.75;26.00;50.00;;;;;;111334;1237;49513;-63
2023/06/15 10:08:26;;;;;;;;;14.75;11.00;26.00;50.10;;;;;;111400;1242;54007;-64
2023/06/15 10:10:58;;;;;;;;;13.25;12.50;26.00;49.70;;;;;;111408;1243;45127;-66
2023/06/15 10:13:41;;;;;;;;;15.00;13.00;26.00;50.10;;;;;;111423;1243;49820;-63
2023/06/15 10:16:09;;;;;;;;;14.00;14.00;26.00;50.00;;;;;;111346;1240;48934;-67
2023/06/15 10:18:37;;;;;;;;;11.75;10.75;26.10;50.10;;;;;;111321;1244;54861;-67
2023/06/15 10:21:05;;;;;;;;;15.00;12.25;26.10;50.00;;;;;;111381;1239;45215;-73
2023/06/15 10:23:33;;;;;;;;;15.50;15.00;26.10;50.00;;;;;;111371;1243;49494;-65
2023/06/15 10:26:01;;;;;;;;;20.75;19.50;26.10;50.10;;;;;;111344;1241;49509;-65
2023/06/15 10:28:32;;;;;;;;;17.25;14.25;26.10;50.00;;;;;;111334;1240;53769;-68
2023/06/15 10:31:12;;;;;;;;;17.25;15.00;26.10;50.00;;;;;;111454;1242;44862;-70
2023/06/15 10:33:48;;;;;;;;;20.67;18.33;26.20;50.30;;;;;;111548;1238;49685;-65
2023/06/15 10:36:26;;;;;;;;;19.00;17.50;26.20;49.90;;;;;;111303;1243;49851;-67
2023/06/15 10:39:15;;;;;;;;;18.00;15.00;26.10;49.80;;;;;;111250;1243;54616;-67
2023/06/15 10:41:46;;;;;;;;;14.25;14.00;26.20;49.60;;;;;;111338;1239;44482;-66
2023/06/15 10:44:16;;;;;;;;;19.25;16.00;26.20;49.50;;;;;;111356;1242;49963;-66
2023/06/15 10:46:43;;;;;;;;;17.75;16.75;26.30;49.50;;;;;;111328;1237;48875;-67
2023/06/15 10:49:11;;;;;;;;;18.00;15.00;26.20;49.50;;;;;;111297;1238;53754;-67
2023/06/15 10:51:49;;;;;;;;;15.67;14.00;26.30;49.60;;;;;;111473;1238;45601;-67
2023/06/15 10:54:24;;;;;;;;;17.75;14.00;26.20;49.40;;;;;;111378;1243;50553;-67
2023/06/15 10:56:53;;;;;;;;;16.00;14.00;26.30;49.50;;;;;;111289;1245;48933;-66
2023/06/15 10:59:57;;;;;;;;;18.50;16.75;26.30;49.60;;;;;;111493;1244;53938;-67
2023/06/15 11:02:33;;;;;;;;;16.00;14.33;26.20;49.60;;;;;;111435;1243;44738;-66
2023/06/15 11:05:04;;;;;;;;;16.75;14.50;26.20;49.60;;;;;;111457;1239;48855;-68
2023/06/15 11:07:40;;;;;;;;;17.50;15.75;26.20;49.60;;;;;;111413;1244;49073;-68
2023/06/15 11:10:13;;;;;;;;;19.00;16.00;26.20;49.60;;;;;;111199;1240;53993;-66
2023/06/15 11:12:43;;;;;;;;;15.33;13.67;26.20;49.60;;;;;;111350;1243;45334;-69
2023/06/15 11:15:16;;;;;;;;;18.00;14.33;26.10;49.50;;;;;;111436;1239;48863;-70
2023/06/15 11:17:55;;;;;;;;;18.00;15.50;26.10;49.90;;;;;;111291;1238;49189;-66
2023/06/15 11:20:37;;;;;;;;;16.00;15.00;26.10;49.80;;;;;;111870;1242;53380;-67
2023/06/15 11:23:10;;;;;;;;;18.33;16.67;26.20;50.00;;;;;;111529;1241;44990;-67
2023/06/15 11:25:47;;;;;;;;;18.00;16.00;26.10;50.00;;;;;;111361;1242;50333;-67
2023/06/15 11:28:17;;;;;;;;;16.50;15.50;26.20;50.20;;;;;;111318;1242;48972;-68
2023/06/15 11:30:44;;;;;;;;;17.00;14.75;26.10;50.20;;;;;;111419;1239;53145;-67
2023/06/15 11:33:12;;;;;;;;;18.75;17.50;26.20;50.40;;;;;;111482;1242;44871;-69
2023/06/15 11:35:40;;;;;;;;;16.00;14.25;26.20;50.30;;;;;;111398;1243;49549;-67
2023/06/15 11:38:08;;;;;;;;;16.33;16.00;26.10;50.20;;;;;;111469;1243;49147;-68
2023/06/15 11:40:35;;;;;;;;;18.00;16.00;26.10;50.30;;;;;;111510;1238;54240;-67
2023/06/15 11:43:07;;;;;;;;;15.00;13.50;26.10;50.40;;;;;;111449;1237;44587;-65
2023/06/15 11:45:34;;;;;;;;;16.00;15.00;26.10;50.40;;;;;;111311;1241;49612;-66
2023/06/15 11:48:01;;;;;;;;;15.25;14.75;26.10;50.60;;;;;;111229;1241;50073;-66
2023/06/15 11:50:28;;;;;;;;;17.00;15.50;26.10;50.60;;;;;;111261;1244;53648;-66
2023/06/15 11:52:55;;;;;;;;;17.00;15.33;26.10;50.60;;;;;;111444;1242;44516;-67
2023/06/15 11:55:22;;;;;;;;;17.00;15.00;26.00;50.70;;;;;;111435;1242;48894;-66
2023/06/15 11:57:50;;;;;;;;;17.75;15.00;26.00;50.80;;;;;;111421;1242;50113;-66
2023/06/15 12:00:18;;;;;;;;;16.00;15.67;26.00;50.70;;;;;;111302;1241;53786;-66
2023/06/15 12:02:45;;;;;;;;;15.75;15.75;26.10;51.00;;;;;;111445;1243;44401;-66
2023/06/15 12:05:12;;;;;;;;;17.00;15.75;26.00;51.00;;;;;;111507;1238;49912;-69
2023/06/15 12:07:39;;;;;;;;;16.00;15.00;26.00;51.10;;;;;;111495;1243;49220;-65
2023/06/15 12:10:07;;;;;;;;;16.25;15.00;26.00;51.10;;;;;;111249;1240;54342;-66
2023/06/15 12:12:35;;;;;;;;;17.00;16.00;26.00;50.70;;;;;;111466;1242;45357;-65
2023/06/15 12:15:05;;;;;;;;;15.00;14.50;26.00;50.90;;;;;;111284;1244;49675;-68
2023/06/15 12:17:34;;;;;;;;;16.25;15.75;26.00;50.90;;;;;;111320;1243;49527;-71
2023/06/15 12:20:10;;;;;;;;;16.00;14.75;26.00;51.00;;;;;;111325;1240;54991;-71
2023/06/15 12:22:44;;;;;;;;;16.00;15.00;26.00;51.10;;;;;;111281;1239;45353;-69
2023/06/15 12:25:12;;;;;;;;;17.00;15.00;25.90;51.00;;;;;;111416;1238;49094;-67
2023/06/15 12:27:45;;;;;;;;;14.50;13.00;26.00;51.30;;;;;;111442;1237;49316;-67